Time;durP1;ratioP1;P1;durP2;ratioP2;P2;SDS_P1;SDS_P2;PMS_P1;PMS_P2;Temp;Humidity;BMP_temperature;BMP_pressure;BME280_temperature;BME280_humidity;BME280_pressure;Samples;Min_cycle;Max_cycle;Signal;HPM_P1;HPM_P2
2023/09/24 00:01:02;;;;;;;2.25;1.75;;;11.00;99.90;;;;;;2700899;39;20382;31
2023/09/24 00:03:50;;;;;;;5.78;1.75;;;11.00;99.90;;;;;;2602473;54;20019;31
2023/09/24 00:06:29;;;;;;;4.23;1.73;;;11.00;99.90;;;;;;2603102;54;20032;31
2023/09/24 00:09:18;;;;;;;3.55;1.75;;;11.00;99.90;;;;;;2602386;54;21269;31
2023/09/24 00:12:00;;;;;;;4.15;2.00;;;10.90;99.90;;;;;;2602829;54;20027;31
2023/09/24 00:14:40;;;;;;;5.00;2.22;;;10.90;99.90;;;;;;2603113;54;20030;31
2023/09/24 00:17:21;;;;;;;5.07;1.80;;;10.80;99.90;;;;;;2603871;46;20027;31
2023/09/24 00:19:58;;;;;;;3.15;2.00;;;10.80;99.90;;;;;;2603322;54;20077;31
2023/09/24 00:22:36;;;;;;;2.85;1.90;;;10.80;99.90;;;;;;2603024;54;20030;31
2023/09/24 00:25:21;;;;;;;4.38;1.90;;;10.80;99.90;;;;;;2603231;54;21002;31
2023/09/24 00:27:58;;;;;;;3.40;2.10;;;10.80;99.90;;;;;;2603146;54;20042;31
2023/09/24 00:30:42;;;;;;;3.45;1.75;;;10.80;99.90;;;;;;2621505;47;20023;31
2023/09/24 00:33:21;;;;;;;3.83;1.50;;;10.70;99.90;;;;;;2603008;54;21213;31
2023/09/24 00:36:03;;;;;;;2.75;1.40;;;10.70;99.90;;;;;;2603038;54;21081;31
2023/09/24 00:38:40;;;;;;;4.05;2.47;;;10.70;99.90;;;;;;2602346;54;20117;31
2023/09/24 00:41:16;;;;;;;2.28;1.67;;;10.60;99.90;;;;;;2602996;54;20031;31
2023/09/24 00:44:11;;;;;;;;;;;10.60;99.90;;;;;;2603156;54;20018;31
2023/09/24 00:47:04;;;;;;;2.75;1.83;;;10.60;99.90;;;;;;2610900;47;19957;31
2023/09/24 00:49:38;;;;;;;2.50;1.35;;;10.60;99.90;;;;;;2603800;54;20089;31
2023/09/24 00:52:19;;;;;;;4.82;1.92;;;10.50;99.90;;;;;;2621918;46;20884;31
2023/09/24 00:54:58;;;;;;;2.78;1.80;;;10.50;99.90;;;;;;2604145;54;20797;31
2023/09/24 00:57:40;;;;;;;2.33;1.45;;;10.50;99.90;;;;;;2603764;54;20022;31
2023/09/24 01:00:28;;;;;;;2.97;1.50;;;10.40;99.90;;;;;;2603684;54;20792;31
2023/09/24 01:03:06;;;;;;;4.47;1.63;;;10.40;99.90;;;;;;2603743;54;20030;31
2023/09/24 01:05:42;;;;;;;6.17;2.10;;;10.40;99.90;;;;;;2620681;46;20022;31
2023/09/24 01:08:25;;;;;;;1.83;1.27;;;10.40;99.90;;;;;;2603168;54;20992;31
2023/09/24 01:10:59;;;;;;;2.70;1.10;;;10.40;99.90;;;;;;2603283;54;20022;31
2023/09/24 01:13:44;;;;;;;3.37;1.57;;;10.30;99.90;;;;;;2603755;54;20752;31
2023/09/24 01:16:22;;;;;;;3.92;1.90;;;10.40;99.90;;;;;;2603777;54;20246;31
2023/09/24 01:18:58;;;;;;;5.07;2.00;;;10.30;99.90;;;;;;2622077;46;20031;31
2023/09/24 01:21:38;;;;;;;3.20;1.67;;;10.30;99.90;;;;;;2603801;54;20058;31
2023/09/24 01:24:27;;;;;;;2.30;1.40;;;10.30;99.90;;;;;;2603014;54;20885;31
2023/09/24 01:27:05;;;;;;;3.45;2.00;;;10.20;99.90;;;;;;2603642;54;20034;31
2023/09/24 01:29:39;;;;;;;2.53;1.70;;;10.20;99.90;;;;;;2603697;54;20093;31
2023/09/24 01:32:19;;;;;;;3.92;2.15;;;10.20;99.90;;;;;;2603719;54;20879;31
2023/09/24 01:35:01;;;;;;;2.38;1.40;;;10.20;99.90;;;;;;2621993;46;20900;31
2023/09/24 01:37:40;;;;;;;5.20;2.00;;;10.20;99.90;;;;;;2603816;54;20171;31
2023/09/24 01:40:21;;;;;;;4.50;2.08;;;10.20;99.90;;;;;;2603626;54;20054;31
2023/09/24 01:42:59;;;;;;;3.22;1.45;;;10.20;99.90;;;;;;2603655;54;20033;31
2023/09/24 01:45:38;;;;;;;4.50;1.98;;;10.10;99.90;;;;;;2603748;54;20060;31
2023/09/24 01:48:14;;;;;;;2.85;1.83;;;10.10;99.90;;;;;;2603436;54;20057;31
2023/09/24 01:50:52;;;;;;;3.35;1.90;;;10.10;99.90;;;;;;2603006;54;20050;31
2023/09/24 01:53:32;;;;;;;3.28;2.08;;;10.10;99.90;;;;;;2614493;46;21273;31
2023/09/24 01:56:13;;;;;;;4.07;1.77;;;10.10;99.90;;;;;;2603456;54;20030;31
2023/09/24 01:58:54;;;;;;;4.17;1.67;;;10.10;99.90;;;;;;2603490;54;20036;31
2023/09/24 02:01:35;;;;;;;3.05;1.80;;;10.10;99.90;;;;;;2603640;54;20238;31
2023/09/24 02:06:45;;;;;;;3.50;1.88;;;10.10;99.90;;;;;;2603622;54;20065;31
2023/09/24 02:09:24;;;;;;;4.75;2.05;;;10.10;99.90;;;;;;2702474;39;20939;31
2023/09/24 02:12:10;;;;;;;4.60;2.20;;;10.10;99.90;;;;;;2622299;46;20064;31
2023/09/24 02:14:48;;;;;;;2.60;2.00;;;10.00;99.90;;;;;;2607854;46;21001;31
2023/09/24 02:17:28;;;;;;;4.33;2.20;;;10.00;99.90;;;;;;2603571;54;20766;31
2023/09/24 02:20:14;;;;;;;3.45;1.80;;;10.00;99.90;;;;;;2603656;54;20243;31
2023/09/24 02:22:50;;;;;;;2.97;1.10;;;10.00;99.90;;;;;;2603618;54;20089;31
2023/09/24 02:25:36;;;;;;;3.33;1.85;;;10.00;99.90;;;;;;2612511;46;20106;31
2023/09/24 02:28:18;;;;;;;3.00;1.40;;;10.00;99.90;;;;;;2603405;54;20783;31
2023/09/24 02:31:04;;;;;;;2.90;1.77;;;10.00;99.90;;;;;;2603541;54;20038;31
2023/09/24 02:33:39;;;;;;;4.60;1.90;;;10.00;99.90;;;;;;2621469;46;20859;31
2023/09/24 02:36:18;;;;;;;2.45;1.38;;;9.90;99.90;;;;;;2603801;54;20030;31
2023/09/24 02:38:52;;;;;;;3.43;1.37;;;9.90;99.90;;;;;;2603434;54;20038;31
2023/09/24 02:41:32;;;;;;;3.08;1.77;;;9.90;99.90;;;;;;2602635;54;20044;31
2023/09/24 02:44:14;;;;;;;2.27;1.17;;;9.90;99.90;;;;;;2603524;54;20026;31
2023/09/24 02:46:51;;;;;;;3.25;1.70;;;9.90;99.90;;;;;;2603386;54;21000;31
2023/09/24 02:49:29;;;;;;;4.03;2.03;;;9.90;99.90;;;;;;2603576;54;20022;31
2023/09/24 02:54:43;;;;;;;2.20;1.33;;;9.90;99.90;;;;;;2621796;46;20026;31
2023/09/24 02:57:21;;;;;;;5.00;1.67;;;9.90;99.90;;;;;;2603669;54;20266;31
2023/09/24 03:00:10;;;;;;;2.45;1.40;;;9.90;99.90;;;;;;2603323;54;20034;31
2023/09/24 03:02:47;;;;;;;5.28;1.80;;;9.90;99.90;;;;;;2603280;54;20815;31
2023/09/24 03:05:25;;;;;;;6.15;1.95;;;9.80;99.90;;;;;;2603463;54;20161;31
2023/09/24 03:08:09;;;;;;;4.10;1.65;;;9.80;99.90;;;;;;2610408;46;20889;31
2023/09/24 03:10:46;;;;;;;3.30;1.87;;;9.90;99.90;;;;;;2602749;54;20030;31
2023/09/24 03:13:22;;;;;;;2.13;1.60;;;9.80;99.90;;;;;;2602764;54;20740;31
2023/09/24 03:16:01;;;;;;;2.45;1.40;;;9.80;99.90;;;;;;2603601;54;20249;31
2023/09/24 03:18:38;;;;;;;2.60;1.60;;;9.80;99.90;;;;;;2602760;54;20031;31
2023/09/24 03:21:17;;;;;;;3.55;1.80;;;9.80;99.90;;;;;;2603222;54;20798;31
2023/09/24 03:23:57;;;;;;;3.95;1.48;;;9.80;99.90;;;;;;2621873;46;20033;31
2023/09/24 03:26:35;;;;;;;3.25;1.70;;;9.80;99.90;;;;;;2603275;54;20030;31
2023/09/24 03:29:15;;;;;;;3.35;1.92;;;9.80;99.90;;;;;;2603426;54;20049;31
2023/09/24 03:31:54;;;;;;;4.38;1.80;;;9.80;99.90;;;;;;2603260;54;20039;31
2023/09/24 03:34:30;;;;;;;2.35;1.40;;;9.80;99.90;;;;;;2602562;54;20037;31
2023/09/24 03:37:09;;;;;;;6.03;1.60;;;9.80;99.90;;;;;;2620975;46;20112;31
2023/09/24 03:39:45;;;;;;;2.08;1.48;;;9.80;99.90;;;;;;2603248;54;20030;31
2023/09/24 03:42:24;;;;;;;3.65;1.80;;;9.80;99.90;;;;;;2603222;54;20089;31
2023/09/24 03:47:43;;;;;;;1.75;1.15;;;9.70;99.90;;;;;;2603236;54;20073;31
2023/09/24 03:50:23;;;;;;;2.63;1.45;;;9.70;99.90;;;;;;2603097;54;20027;31
2023/09/24 03:53:01;;;;;;;2.40;1.30;;;9.70;99.90;;;;;;2603188;54;20882;31
2023/09/24 03:55:39;;;;;;;2.80;1.50;;;9.70;99.90;;;;;;2602724;54;20076;31
2023/09/24 03:58:17;;;;;;;3.17;1.37;;;9.70;99.90;;;;;;2603293;54;20027;31
2023/09/24 04:00:55;;;;;;;4.10;1.65;;;9.70;99.90;;;;;;2603198;54;20728;31
2023/09/24 04:03:36;;;;;;;3.80;1.67;;;9.70;99.90;;;;;;2602883;54;20038;31
2023/09/24 04:06:14;;;;;;;2.90;1.52;;;9.70;99.90;;;;;;2602494;54;21087;31
2023/09/24 04:08:53;;;;;;;1.92;1.33;;;9.60;99.90;;;;;;2603149;54;21650;31
2023/09/24 04:11:33;;;;;;;2.40;1.60;;;9.60;99.90;;;;;;2603212;54;20026;31
2023/09/24 04:14:14;;;;;;;4.82;1.90;;;9.60;99.90;;;;;;2602963;54;20128;31
2023/09/24 04:16:51;;;;;;;2.20;1.65;;;9.60;99.90;;;;;;2603368;54;21542;31
2023/09/24 04:19:31;;;;;;;2.85;1.77;;;9.60;99.90;;;;;;2603052;54;20113;31
2023/09/24 04:22:07;;;;;;;2.10;1.20;;;9.60;99.90;;;;;;2603342;54;20042;31
2023/09/24 04:24:42;;;;;;;3.38;2.03;;;9.50;99.90;;;;;;2621613;46;20497;31
2023/09/24 04:27:20;;;;;;;3.73;1.50;;;9.50;99.90;;;;;;2621483;46;20034;31
2023/09/24 04:29:57;;;;;;;3.00;1.50;;;9.50;99.90;;;;;;2603003;54;20050;31
2023/09/24 04:32:33;;;;;;;5.57;1.77;;;9.50;99.90;;;;;;2603250;54;20042;31
2023/09/24 04:35:12;;;;;;;3.05;1.75;;;9.40;99.90;;;;;;2603011;54;19934;31
2023/09/24 04:37:51;;;;;;;3.35;1.77;;;9.50;99.90;;;;;;2602948;54;20034;31
2023/09/24 04:40:32;;;;;;;4.30;1.55;;;9.40;99.90;;;;;;2603210;54;20026;31
2023/09/24 04:43:10;;;;;;;2.22;1.60;;;9.40;99.90;;;;;;2603094;54;20860;31
2023/09/24 04:45:46;;;;;;;4.32;1.85;;;9.40;99.90;;;;;;2602273;54;20092;31
2023/09/24 04:48:21;;;;;;;3.45;2.08;;;9.40;99.90;;;;;;2602895;54;20030;31
2023/09/24 04:51:02;;;;;;;3.35;2.08;;;9.40;99.90;;;;;;2602903;54;20836;31
2023/09/24 04:53:39;;;;;;;3.17;2.08;;;9.40;99.90;;;;;;2603126;54;20527;31
2023/09/24 04:56:18;;;;;;;2.55;1.70;;;9.40;99.90;;;;;;2602956;54;20881;31
2023/09/24 04:58:58;;;;;;;3.80;1.80;;;9.50;99.90;;;;;;2602986;54;20073;31
2023/09/24 05:01:35;;;;;;;4.80;1.83;;;9.50;99.90;;;;;;2621118;47;20026;31
2023/09/24 05:04:11;;;;;;;3.03;1.65;;;9.50;99.90;;;;;;2604861;47;20029;31
2023/09/24 05:06:54;;;;;;;2.92;1.67;;;9.50;99.90;;;;;;2603151;54;20081;31
2023/09/24 05:09:36;;;;;;;3.70;1.90;;;9.50;99.90;;;;;;2603208;54;20030;31
2023/09/24 05:12:12;;;;;;;4.20;1.52;;;9.50;99.90;;;;;;2602522;54;20818;31
2023/09/24 05:14:49;;;;;;;2.75;1.77;;;9.50;99.90;;;;;;2603108;54;20022;31
2023/09/24 05:17:27;;;;;;;2.22;1.50;;;9.60;99.90;;;;;;2602977;54;20009;31
2023/09/24 05:20:10;;;;;;;2.75;1.70;;;9.60;99.90;;;;;;2602768;54;20030;31
2023/09/24 05:22:49;;;;;;;3.78;1.83;;;9.70;99.90;;;;;;2621037;47;20987;31
2023/09/24 05:25:29;;;;;;;3.40;2.10;;;9.70;99.90;;;;;;2602228;54;20022;31
2023/09/24 05:28:06;;;;;;;4.18;1.95;;;9.80;99.90;;;;;;2602719;54;20014;31
2023/09/24 05:30:47;;;;;;;3.22;1.73;;;9.80;99.90;;;;;;2602124;54;20234;31
2023/09/24 05:33:21;;;;;;;3.75;1.58;;;9.90;99.90;;;;;;2603362;54;20058;31
2023/09/24 05:36:00;;;;;;;2.60;1.50;;;10.00;99.90;;;;;;2603797;54;20034;31
2023/09/24 05:38:37;;;;;;;2.42;1.65;;;10.00;99.90;;;;;;2603663;54;20054;31
2023/09/24 05:41:16;;;;;;;4.18;1.45;;;10.10;99.90;;;;;;2603819;54;20030;31
2023/09/24 05:43:54;;;;;;;5.82;1.77;;;10.20;99.90;;;;;;2622133;46;20030;31
2023/09/24 05:46:29;;;;;;;2.30;1.70;;;10.30;99.90;;;;;;2622002;46;20101;31
2023/09/24 05:49:09;;;;;;;4.88;2.10;;;10.50;99.90;;;;;;2603517;54;20023;31
2023/09/24 05:51:46;;;;;;;3.60;1.88;;;10.80;99.90;;;;;;2617709;46;20022;31
2023/09/24 05:54:25;;;;;;;3.40;1.40;;;11.10;99.90;;;;;;2620847;46;20025;31
2023/09/24 05:57:07;;;;;;;2.13;1.48;;;11.40;99.90;;;;;;2603424;54;20096;31
2023/09/24 05:59:46;;;;;;;1.77;1.35;;;11.80;99.90;;;;;;2603695;54;20029;31
2023/09/24 06:02:25;;;;;;;2.33;1.27;;;12.20;99.90;;;;;;2603574;54;20026;31
2023/09/24 06:05:07;;;;;;;2.25;1.30;;;12.60;99.90;;;;;;2603591;54;20033;31
2023/09/24 06:07:42;;;;;;;2.85;1.10;;;12.90;99.90;;;;;;2621945;46;20158;31
2023/09/24 06:10:24;;;;;;;3.08;1.40;;;13.10;99.90;;;;;;2602949;54;20056;31
2023/09/24 06:13:05;;;;;;;1.90;1.20;;;13.40;99.90;;;;;;2603588;54;20870;31
2023/09/24 06:15:42;;;;;;;4.57;1.52;;;13.70;99.90;;;;;;2622345;46;20032;31
2023/09/24 06:18:20;;;;;;;2.03;1.10;;;14.00;99.90;;;;;;2621501;46;20879;31
2023/09/24 06:21:02;;;;;;;2.75;1.40;;;14.40;99.90;;;;;;2772574;31;21603;31
2023/09/24 06:23:41;;;;;;;2.78;1.73;;;14.70;99.90;;;;;;2602739;54;20060;31
2023/09/24 06:26:19;;;;;;;;;;;15.00;99.90;;;;;;2603772;54;20038;31
2023/09/24 06:28:58;;;;;;;4.10;1.63;;;15.30;99.90;;;;;;2621896;46;20760;31
2023/09/24 06:31:52;;;;;;;2.35;1.20;;;15.40;99.90;;;;;;2603464;54;20026;31
2023/09/24 06:37:02;;;;;;;6.07;1.60;;;15.90;99.90;;;;;;2622018;46;20030;31
2023/09/24 06:39:44;;;;;;;2.75;1.63;;;16.10;99.90;;;;;;2621331;46;20037;31
2023/09/24 06:42:18;;;;;;;2.10;1.10;;;16.10;99.90;;;;;;2603097;54;20913;31
2023/09/24 06:44:57;;;;;;;2.17;1.30;;;16.10;99.90;;;;;;2603629;54;20881;31
2023/09/24 06:47:37;;;;;;;2.03;1.30;;;16.10;99.90;;;;;;2603454;54;20023;31
2023/09/24 06:50:14;;;;;;;2.47;1.43;;;16.20;99.90;;;;;;2602676;54;20923;31
2023/09/24 06:53:04;;;;;;;2.80;1.60;;;16.20;99.90;;;;;;2603253;54;20026;31
2023/09/24 06:55:50;;;;;;;5.82;1.55;;;16.20;99.90;;;;;;2621990;46;20026;31
2023/09/24 06:58:28;;;;;;;3.43;1.43;;;16.30;99.90;;;;;;2603421;54;20892;31
2023/09/24 07:01:09;;;;;;;2.35;1.45;;;16.20;99.90;;;;;;2603261;54;20887;31
2023/09/24 07:09:43;;;;;;;3.65;1.55;;;15.70;99.90;;;;;;2621667;46;20770;31
2023/09/24 07:12:19;;;;;;;2.70;1.40;;;15.50;99.90;;;;;;2603153;54;20026;31
2023/09/24 07:14:59;;;;;;;4.05;1.50;;;15.40;99.90;;;;;;2622064;46;20029;31
2023/09/24 07:17:55;;;;;;;;;;;15.30;99.90;;;;;;2720238;39;22391;31
2023/09/24 07:23:20;;;;;;;2.60;1.52;;;15.40;99.90;;;;;;2621931;46;20034;31
2023/09/24 07:25:59;;;;;;;4.00;1.67;;;15.50;99.90;;;;;;2603254;54;20865;31
2023/09/24 07:28:49;;;;;;;3.65;1.75;;;15.50;99.90;;;;;;2603316;54;19960;31
2023/09/24 07:31:39;;;;;;;2.23;1.40;;;15.50;99.90;;;;;;2603254;54;20764;31
2023/09/24 07:34:16;;;;;;;4.30;1.77;;;15.70;99.90;;;;;;2603114;54;21035;31
2023/09/24 07:37:03;;;;;;;2.38;1.73;;;15.70;99.90;;;;;;2621818;46;20901;31
2023/09/24 07:39:49;;;;;;;2.30;1.60;;;15.60;99.90;;;;;;2603299;54;20095;31
2023/09/24 07:42:30;;;;;;;3.72;2.00;;;15.70;99.90;;;;;;2621297;46;20026;31
2023/09/24 07:45:09;;;;;;;3.88;1.67;;;15.80;99.90;;;;;;2603378;54;20057;31
2023/09/24 07:47:45;;;;;;;3.40;1.70;;;15.90;99.90;;;;;;2603285;54;20834;31
2023/09/24 07:50:22;;;;;;;4.30;1.75;;;16.10;99.90;;;;;;2603165;54;20065;31
2023/09/24 07:53:09;;;;;;;4.57;1.80;;;16.30;99.90;;;;;;2603478;54;20030;31
2023/09/24 07:58:30;;;;;;;5.05;1.55;;;16.80;99.90;;;;;;2603509;54;20022;31
2023/09/24 08:01:09;;;;;;;4.40;1.65;;;16.90;99.90;;;;;;2603102;54;20033;31
2023/09/24 08:03:56;;;;;;;3.72;1.58;;;17.20;99.90;;;;;;2603515;54;20026;31
2023/09/24 08:06:38;;;;;;;2.67;1.50;;;17.40;99.90;;;;;;2603472;54;20029;31
2023/09/24 08:09:17;;;;;;;3.03;1.50;;;17.60;99.90;;;;;;2603216;54;20769;31
2023/09/24 08:12:16;;;;;;;4.03;1.63;;;17.80;99.90;;;;;;2603192;54;20824;31
2023/09/24 08:15:08;;;;;;;4.30;1.80;;;18.00;99.90;;;;;;2602933;54;20118;31
2023/09/24 08:17:46;;;;;;;3.35;1.48;;;18.20;99.90;;;;;;2621792;46;20023;31
2023/09/24 08:20:25;;;;;;;2.85;1.58;;;18.60;99.90;;;;;;2603211;54;20867;31
2023/09/24 08:23:00;;;;;;;3.85;1.77;;;18.90;99.90;;;;;;2603156;54;20046;31
2023/09/24 08:25:36;;;;;;;4.82;1.75;;;19.20;99.90;;;;;;2603023;54;20877;31
2023/09/24 08:28:15;;;;;;;2.05;1.10;;;19.60;99.90;;;;;;2603350;54;19934;31
2023/09/24 08:30:53;;;;;;;3.80;1.57;;;19.90;99.90;;;;;;2603236;54;20026;31
2023/09/24 08:33:32;;;;;;;4.20;1.73;;;20.20;99.90;;;;;;2621222;47;20058;31
2023/09/24 08:36:13;;;;;;;2.13;1.20;;;20.60;99.90;;;;;;2621487;47;20034;31
2023/09/24 08:38:58;;;;;;;3.13;1.27;;;20.90;99.90;;;;;;2603173;54;20889;31
2023/09/24 08:41:46;;;;;;;2.80;1.40;;;21.00;99.90;;;;;;2603238;54;21020;31
2023/09/24 08:44:25;;;;;;;2.85;1.52;;;21.20;99.90;;;;;;2621052;47;20816;31
2023/09/24 08:47:04;;;;;;;2.15;1.05;;;21.40;99.90;;;;;;2612348;47;20765;31
2023/09/24 08:49:50;;;;;;;3.83;1.40;;;21.60;99.90;;;;;;2604066;47;20129;31
2023/09/24 08:52:36;;;;;;;1.75;1.20;;;21.80;99.90;;;;;;2701565;39;21493;31
2023/09/24 08:55:13;;;;;;;3.20;1.40;;;21.90;99.90;;;;;;2603091;54;20026;31
2023/09/24 08:57:53;;;;;;;2.45;1.20;;;22.10;99.90;;;;;;2602913;54;20944;31
2023/09/24 09:00:36;;;;;;;2.50;1.60;;;22.10;99.90;;;;;;2621480;47;20770;31
2023/09/24 09:03:18;;;;;;;3.20;1.45;;;22.10;99.90;;;;;;2602387;54;20907;31
2023/09/24 09:05:59;;;;;;;1.75;1.27;;;22.30;99.90;;;;;;2602359;54;21047;31
2023/09/24 09:08:50;;;;;;;1.35;1.00;;;22.50;99.90;;;;;;2603542;54;20042;31
2023/09/24 09:11:36;;;;;;;3.00;1.60;;;22.50;99.90;;;;;;2621896;46;25064;31
2023/09/24 09:14:23;;;;;;;2.53;1.20;;;22.50;99.90;;;;;;2603706;54;20038;31
2023/09/24 09:17:11;;;;;;;;;;;;;;;;;;;;;
2023/09/24 09:20:11;;;;;;;5.00;1.25;;;22.60;99.90;;;;;;2603720;54;20023;31
2023/09/24 09:22:57;;;;;;;3.20;1.65;;;22.80;99.90;;;;;;2602927;54;21008;31
2023/09/24 09:25:55;;;;;;;3.28;1.63;;;22.90;99.90;;;;;;2603663;54;19938;31
2023/09/24 09:28:41;;;;;;;2.70;1.35;;;23.00;99.90;;;;;;2622536;46;20776;31
2023/09/24 09:31:26;;;;;;;2.17;1.58;;;23.00;99.90;;;;;;2621866;46;20903;31
2023/09/24 09:34:04;;;;;;;1.70;1.50;;;23.10;99.90;;;;;;2603059;54;20214;31
2023/09/24 09:36:46;;;;;;;2.30;1.48;;;23.20;99.90;;;;;;2603649;54;20981;31
2023/09/24 09:39:25;;;;;;;3.00;1.65;;;23.20;99.90;;;;;;2603534;54;20049;31
2023/09/24 09:42:04;;;;;;;2.10;1.27;;;23.30;99.90;;;;;;2622149;46;20025;31
2023/09/24 09:44:40;;;;;;;3.17;1.52;;;23.30;99.90;;;;;;2603553;54;20839;31
2023/09/24 09:47:17;;;;;;;2.73;1.40;;;23.40;99.90;;;;;;2603804;54;20081;31
2023/09/24 09:49:59;;;;;;;2.20;1.37;;;23.40;99.90;;;;;;2622080;46;20026;31
2023/09/24 09:52:46;;;;;;;3.40;1.40;;;23.50;99.90;;;;;;2603776;54;20030;31
2023/09/24 09:55:23;;;;;;;3.15;1.95;;;23.50;99.90;;;;;;2603511;54;20042;31
2023/09/24 09:58:00;;;;;;;2.58;1.67;;;23.40;99.90;;;;;;2603374;54;20762;31
2023/09/24 10:00:59;;;;;;;2.40;1.60;;;23.50;99.90;;;;;;2603769;54;20026;31
2023/09/24 10:03:36;;;;;;;2.53;1.30;;;23.30;99.90;;;;;;2603316;54;20049;31
2023/09/24 10:06:12;;;;;;;2.85;1.15;;;23.20;99.90;;;;;;2603397;54;20052;31
2023/09/24 10:08:53;;;;;;;3.83;1.55;;;;;;;;;;2603453;54;20137;31
2023/09/24 10:11:46;;;;;;;3.80;1.40;;;22.90;99.90;;;;;;2603386;54;20026;31
2023/09/24 10:14:33;;;;;;;2.20;1.10;;;22.90;99.90;;;;;;2603692;54;20190;31
2023/09/24 10:17:27;;;;;;;2.50;1.40;;;22.70;99.90;;;;;;2603362;54;20076;31
2023/09/24 10:20:08;;;;;;;2.75;1.40;;;22.60;99.90;;;;;;2603506;54;20033;31
2023/09/24 10:22:47;;;;;;;1.90;1.50;;;22.50;99.90;;;;;;2602647;54;20421;31
2023/09/24 10:25:41;;;;;;;2.17;1.10;;;22.50;99.90;;;;;;2602809;54;20023;31
2023/09/24 10:28:19;;;;;;;2.83;1.33;;;22.60;99.90;;;;;;2603332;54;20779;31
2023/09/24 10:31:06;;;;;;;1.77;1.00;;;22.60;99.90;;;;;;2603478;54;20023;31
2023/09/24 10:33:57;;;;;;;1.98;1.25;;;22.40;99.90;;;;;;2603589;54;20030;31
2023/09/24 10:36:43;;;;;;;1.50;0.90;;;22.10;99.90;;;;;;2603460;54;19946;31
2023/09/24 10:39:23;;;;;;;1.90;1.10;;;21.90;99.90;;;;;;2603643;54;20800;31
2023/09/24 10:42:27;;;;;;;2.28;1.10;;;21.70;99.90;;;;;;2603632;54;20161;31
2023/09/24 10:45:31;;;;;;;2.65;1.10;;;21.50;99.90;;;;;;2603427;54;20808;31
2023/09/24 10:48:10;;;;;;;1.98;1.08;;;21.40;99.90;;;;;;2603463;54;20088;31
2023/09/24 10:50:47;;;;;;;1.63;0.90;;;21.30;99.90;;;;;;2603371;54;20030;31
2023/09/24 10:53:27;;;;;;;2.03;1.20;;;21.40;99.90;;;;;;2621926;46;20038;31
2023/09/24 10:56:05;;;;;;;2.88;0.82;;;21.50;99.90;;;;;;2603536;54;20026;31
2023/09/24 10:58:55;;;;;;;4.13;1.00;;;21.50;99.90;;;;;;2603595;54;20022;31
2023/09/24 11:01:55;;;;;;;3.35;0.95;;;21.40;99.90;;;;;;2621870;46;20246;31
2023/09/24 11:04:32;;;;;;;2.90;0.98;;;21.40;99.90;;;;;;2610559;46;20023;31
2023/09/24 11:07:14;;;;;;;1.98;0.80;;;21.50;99.90;;;;;;2603535;54;20982;31
2023/09/24 11:09:51;;;;;;;1.00;0.60;;;21.70;99.90;;;;;;2621826;46;20030;31
2023/09/24 11:12:26;;;;;;;1.23;0.63;;;21.80;99.90;;;;;;2603621;54;20923;31
2023/09/24 11:15:07;;;;;;;1.17;0.68;;;21.70;99.90;;;;;;2603348;54;20255;31
2023/09/24 11:17:49;;;;;;;2.90;0.90;;;21.60;99.90;;;;;;2622046;46;20030;31
2023/09/24 11:20:28;;;;;;;1.50;0.80;;;21.40;99.90;;;;;;2603530;54;20046;31
2023/09/24 11:23:11;;;;;;;2.03;0.75;;;21.30;99.90;;;;;;2603350;54;20030;31
2023/09/24 11:25:49;;;;;;;3.63;1.00;;;21.10;99.90;;;;;;2603472;54;20026;31
2023/09/24 11:28:33;;;;;;;1.27;0.88;;;21.10;99.90;;;;;;2603215;54;20955;31
2023/09/24 11:31:25;;;;;;;2.05;0.88;;;21.20;99.90;;;;;;2603234;54;20030;31
2023/09/24 11:36:39;;;;;;;2.30;0.77;;;21.40;99.90;;;;;;2603294;54;20089;31
2023/09/24 11:39:16;;;;;;;2.07;1.03;;;21.50;99.90;;;;;;2603376;54;20033;31
2023/09/24 11:41:56;;;;;;;2.05;0.70;;;21.50;99.90;;;;;;2603456;54;20156;31
2023/09/24 11:44:30;;;;;;;3.63;0.63;;;21.30;99.90;;;;;;2603451;54;20026;31
2023/09/24 11:47:14;;;;;;;2.13;0.55;;;21.20;99.90;;;;;;2621836;46;20126;31
2023/09/24 11:49:49;;;;;;;1.80;0.70;;;21.00;99.90;;;;;;2603059;54;20026;31
2023/09/24 11:52:27;;;;;;;3.20;0.85;;;20.80;99.90;;;;;;2622286;46;20030;31
2023/09/24 11:55:05;;;;;;;1.92;1.02;;;20.70;99.90;;;;;;2603079;54;20817;31
2023/09/24 11:57:41;;;;;;;2.70;0.80;;;20.70;99.90;;;;;;2603275;54;20037;31
2023/09/24 12:00:21;;;;;;;1.38;0.77;;;20.80;99.90;;;;;;2603252;54;20022;31
2023/09/24 12:03:07;;;;;;;1.50;0.90;;;20.80;99.90;;;;;;2603165;54;20034;31
2023/09/24 12:05:44;;;;;;;3.42;0.82;;;20.90;99.90;;;;;;2603190;54;20026;31
2023/09/24 12:08:21;;;;;;;2.60;1.00;;;20.90;99.90;;;;;;2621186;46;20034;31
2023/09/24 12:13:34;;;;;;;1.55;0.65;;;20.70;99.90;;;;;;2603118;54;20766;31
2023/09/24 12:16:10;;;;;;;4.40;0.70;;;20.70;99.90;;;;;;2603153;54;20053;31
2023/09/24 12:18:48;;;;;;;7.25;1.95;;;20.70;99.90;;;;;;2621705;46;20034;31
2023/09/24 12:21:25;;;;;;;1.45;0.85;;;20.70;99.90;;;;;;2603239;54;20757;31
2023/09/24 12:24:13;;;;;;;2.20;0.93;;;20.80;99.90;;;;;;2621333;46;20030;31
2023/09/24 12:26:57;;;;;;;2.92;1.38;;;20.80;99.90;;;;;;2621667;46;20057;31
2023/09/24 12:29:38;;;;;;;3.13;1.35;;;20.90;99.90;;;;;;2603251;54;20755;31
2023/09/24 12:32:15;;;;;;;4.10;1.30;;;20.90;99.90;;;;;;2603085;54;20031;31
2023/09/24 12:34:57;;;;;;;2.25;1.52;;;20.80;99.90;;;;;;2621303;47;20097;31
2023/09/24 12:37:40;;;;;;;3.00;0.60;;;20.70;99.90;;;;;;2621455;47;20026;31
2023/09/24 12:40:21;;;;;;;2.25;0.80;;;20.60;99.90;;;;;;2605860;47;20038;31
2023/09/24 12:43:02;;;;;;;0.95;0.70;;;20.50;99.90;;;;;;2603849;54;22387;31
2023/09/24 12:45:38;;;;;;;0.90;0.60;;;20.50;99.90;;;;;;2702348;39;21552;31
2023/09/24 12:48:17;;;;;;;3.72;1.00;;;20.50;99.90;;;;;;2603719;54;20030;31
2023/09/24 12:50:55;;;;;;;;;;;20.60;99.90;;;;;;2604119;54;20854;31
2023/09/24 12:53:36;;;;;;;3.35;1.13;;;20.60;99.90;;;;;;2622199;46;19935;31
2023/09/24 12:56:13;;;;;;;2.00;0.68;;;20.60;99.90;;;;;;2603831;54;20827;31
2023/09/24 12:58:55;;;;;;;4.43;1.10;;;20.60;99.90;;;;;;2603691;54;20038;31
2023/09/24 13:01:42;;;;;;;3.72;0.70;;;20.50;99.90;;;;;;2622047;46;20866;31
2023/09/24 13:04:25;;;;;;;1.70;0.95;;;20.40;99.90;;;;;;2603712;54;21571;31
2023/09/24 13:07:06;;;;;;;3.60;0.90;;;20.30;99.90;;;;;;2603915;54;20930;31
2023/09/24 13:09:45;;;;;;;1.75;0.90;;;20.20;99.90;;;;;;2603675;54;20887;31
2023/09/24 13:12:21;;;;;;;1.33;0.88;;;20.00;99.90;;;;;;2603747;54;20030;31
2023/09/24 13:14:59;;;;;;;1.15;0.77;;;19.90;99.90;;;;;;2603722;54;20034;31
2023/09/24 13:17:53;;;;;;;3.30;0.80;;;19.80;99.90;;;;;;2622162;46;20108;31
2023/09/24 13:20:37;;;;;;;1.98;0.43;;;19.80;99.90;;;;;;2621939;46;20842;31
2023/09/24 13:23:12;;;;;;;2.10;0.70;;;19.80;99.90;;;;;;2622322;46;20026;31
2023/09/24 13:25:53;;;;;;;1.17;0.63;;;19.90;99.90;;;;;;2622291;46;20026;31
2023/09/24 13:28:32;;;;;;;3.10;0.60;;;19.90;99.90;;;;;;2603335;54;20800;31
2023/09/24 13:31:08;;;;;;;1.57;0.70;;;20.10;99.90;;;;;;2603633;54;20127;31
2023/09/24 13:33:46;;;;;;;2.75;0.65;;;20.20;99.90;;;;;;2603793;54;20861;31
2023/09/24 13:36:25;;;;;;;1.20;0.57;;;20.20;99.90;;;;;;2603808;54;20026;31
2023/09/24 13:39:03;;;;;;;2.67;0.60;;;20.30;99.90;;;;;;2621940;46;20037;31
2023/09/24 13:41:42;;;;;;;1.70;0.85;;;20.30;99.90;;;;;;2603806;54;20108;31
2023/09/24 13:44:23;;;;;;;1.13;0.47;;;20.20;99.90;;;;;;2603762;54;20022;31
2023/09/24 13:49:55;;;;;;;1.55;0.60;;;20.00;99.90;;;;;;2603497;54;19990;31
2023/09/24 13:52:34;;;;;;;0.95;0.57;;;19.90;99.90;;;;;;2720228;39;21501;31
2023/09/24 13:55:14;;;;;;;1.05;0.55;;;19.60;99.90;;;;;;2603703;54;20728;31
2023/09/24 13:57:55;;;;;;;2.85;0.75;;;;;;;;;;2602633;54;20068;31
2023/09/24 14:00:38;;;;;;;1.20;0.50;;;19.60;99.90;;;;;;2622176;46;21508;31
2023/09/24 14:03:18;;;;;;;1.80;0.50;;;19.50;99.90;;;;;;2603423;54;20778;31
2023/09/24 14:14:19;;;;;;;2.92;0.60;;;19.50;99.90;;;;;;2603655;54;20898;31
2023/09/24 14:16:53;;;;;;;1.30;0.50;;;19.50;99.90;;;;;;2603435;54;19942;31
2023/09/24 14:22:33;;;;;;;4.10;1.40;;;19.60;99.90;;;;;;2603584;54;20822;31
2023/09/24 14:27:56;;;;;;;2.00;0.60;;;19.80;99.90;;;;;;2603603;54;20070;31
2023/09/24 14:30:33;;;;;;;1.80;0.60;;;19.80;99.90;;;;;;2603709;54;20026;31
2023/09/24 14:33:14;;;;;;;1.35;0.50;;;19.80;99.90;;;;;;2602706;54;20863;31
2023/09/24 14:35:59;;;;;;;0.82;0.52;;;19.90;99.90;;;;;;2603503;54;20956;31
2023/09/24 14:38:34;;;;;;;1.85;0.40;;;19.90;99.90;;;;;;2603443;54;20026;31
2023/09/24 14:41:11;;;;;;;1.63;0.57;;;19.80;99.90;;;;;;2603460;54;21272;31
2023/09/24 14:43:49;;;;;;;1.50;0.70;;;19.80;99.90;;;;;;2602655;54;20026;31
2023/09/24 14:46:35;;;;;;;1.50;0.60;;;19.60;99.90;;;;;;2613857;46;20041;31
2023/09/24 14:49:15;;;;;;;1.40;0.65;;;19.50;99.90;;;;;;2616449;46;20065;31
2023/09/24 14:51:55;;;;;;;1.55;0.73;;;19.50;99.90;;;;;;2602624;54;20054;31
2023/09/24 14:54:30;;;;;;;2.92;0.63;;;19.40;99.90;;;;;;2603602;54;20886;31
2023/09/24 14:57:08;;;;;;;2.38;0.68;;;19.20;99.90;;;;;;2621842;46;20081;31